Time;durP1;ratioP1;P1;durP2;ratioP2;P2;SDS_P1;SDS_P2;PMS_P1;PMS_P2;Temp;Humidity;BMP_temperature;BMP_pressure;BME280_temperature;BME280_humidity;BME280_pressure;Samples;Min_cycle;Max_cycle;Signal;HPM_P1;HPM_P2
2020/12/07 00:01:51;;;;;;;18.40;14.03;;;3.00;86.50;;;;;;4966252;28;20227;-85
2020/12/07 00:04:18;;;;;;;19.27;12.93;;;2.90;86.50;;;;;;4979780;28;20307;-83
2020/12/07 00:06:46;;;;;;;22.47;15.10;;;3.00;86.50;;;;;;4979587;28;20200;-82
2020/12/07 00:09:14;;;;;;;19.30;13.30;;;2.90;86.60;;;;;;4998870;28;20226;-83
2020/12/07 00:11:41;;;;;;;17.73;12.33;;;2.90;86.40;;;;;;5261096;23;21455;-82
2020/12/07 00:14:11;;;;;;;19.83;11.47;;;2.90;86.50;;;;;;5007656;28;20196;-81
2020/12/07 00:16:43;;;;;;;19.13;14.13;;;2.90;86.20;;;;;;4977212;28;20192;-84
2020/12/07 00:19:11;;;;;;;16.13;10.63;;;2.90;86.20;;;;;;4987206;28;20204;-83
2020/12/07 00:21:42;;;;;;;18.37;13.60;;;2.90;86.20;;;;;;4989274;28;20199;-82
2020/12/07 00:24:11;;;;;;;19.03;13.10;;;2.90;86.20;;;;;;4987301;28;20208;-83
2020/12/07 00:26:43;;;;;;;17.70;11.97;;;2.90;86.10;;;;;;4984843;28;20214;-83
2020/12/07 00:29:12;;;;;;;16.47;11.30;;;2.90;86.10;;;;;;4987965;28;20219;-83
2020/12/07 00:31:41;;;;;;;14.93;11.60;;;2.90;86.30;;;;;;4985435;28;20243;-82
2020/12/07 00:34:08;;;;;;;19.13;13.17;;;2.90;86.20;;;;;;4992403;28;20215;-82
2020/12/07 00:36:42;;;;;;;19.73;14.33;;;2.90;86.20;;;;;;4969153;28;20216;-84
2020/12/07 00:39:09;;;;;;;18.57;13.53;;;2.90;86.40;;;;;;4983818;28;20887;-80
2020/12/07 00:41:40;;;;;;;18.03;11.27;;;2.80;86.30;;;;;;4981835;28;20239;-84
2020/12/07 00:44:09;;;;;;;16.33;12.17;;;2.90;86.20;;;;;;4979849;28;20741;-82
2020/12/07 00:46:37;;;;;;;20.30;12.77;;;2.80;86.10;;;;;;4966421;28;20212;-82
2020/12/07 00:49:06;;;;;;;22.30;13.97;;;2.70;86.00;;;;;;4985944;28;20750;-83
2020/12/07 00:51:33;;;;;;;17.40;12.87;;;2.80;86.20;;;;;;4987856;28;20864;-80
2020/12/07 00:54:01;;;;;;;19.27;13.33;;;2.80;86.10;;;;;;4982487;28;20215;-81
2020/12/07 00:56:29;;;;;;;20.50;13.27;;;2.80;86.30;;;;;;4981916;28;20208;-83
2020/12/07 00:58:57;;;;;;;14.90;10.50;;;2.80;86.10;;;;;;4983246;28;20594;-81
2020/12/07 01:01:25;;;;;;;16.37;11.57;;;2.80;86.10;;;;;;4986117;28;20599;-83
2020/12/07 01:03:53;;;;;;;18.40;13.27;;;2.80;86.00;;;;;;4990507;28;20204;-83
2020/12/07 01:06:28;;;;;;;18.13;12.13;;;2.80;86.10;;;;;;4995619;28;20200;-82
2020/12/07 01:08:55;;;;;;;16.87;12.60;;;2.80;85.90;;;;;;4985599;28;20315;-80
2020/12/07 01:11:25;;;;;;;15.67;12.23;;;2.80;86.00;;;;;;4987585;28;20228;-81
2020/12/07 01:13:53;;;;;;;17.73;13.20;;;2.80;86.00;;;;;;4984090;28;20220;-82
2020/12/07 01:16:21;;;;;;;18.83;13.70;;;2.80;86.10;;;;;;4994495;28;20204;-83
2020/12/07 01:18:49;;;;;;;19.30;12.77;;;2.80;86.20;;;;;;5000198;28;20279;-83
2020/12/07 01:21:18;;;;;;;15.20;11.17;;;2.80;86.30;;;;;;4989416;28;20184;-83
2020/12/07 01:23:47;;;;;;;18.27;12.97;;;2.70;86.30;;;;;;4993872;28;20207;-79
2020/12/07 01:26:15;;;;;;;16.20;12.00;;;2.70;86.40;;;;;;4974140;28;20208;-83
2020/12/07 01:28:43;;;;;;;14.17;10.23;;;2.70;86.30;;;;;;4992972;28;20196;-83
2020/12/07 01:31:12;;;;;;;18.53;11.33;;;2.70;86.30;;;;;;5007225;28;20323;-83
2020/12/07 01:33:39;;;;;;;15.83;11.57;;;2.70;86.20;;;;;;5000230;28;20187;-82
2020/12/07 01:36:07;;;;;;;18.13;12.30;;;2.70;86.20;;;;;;5002093;28;20447;-82
2020/12/07 01:38:35;;;;;;;15.60;10.13;;;2.70;86.20;;;;;;5003344;28;20184;-84
2020/12/07 01:41:03;;;;;;;16.57;10.37;;;2.70;86.20;;;;;;4995764;28;20204;-82
2020/12/07 01:43:31;;;;;;;17.67;11.97;;;2.60;86.20;;;;;;4990081;28;20816;-81
2020/12/07 01:46:00;;;;;;;15.93;11.53;;;2.60;86.30;;;;;;4989275;28;20265;-82
2020/12/07 01:48:29;;;;;;;21.20;12.70;;;2.60;86.30;;;;;;4999786;28;20215;-79
2020/12/07 01:50:57;;;;;;;17.60;11.23;;;2.60;86.30;;;;;;4999142;28;20228;-81
2020/12/07 01:53:25;;;;;;;17.23;12.77;;;2.60;86.40;;;;;;4995710;28;20264;-82
2020/12/07 01:55:54;;;;;;;15.60;11.27;;;2.60;86.20;;;;;;5004461;28;20218;-82
2020/12/07 01:58:23;;;;;;;15.97;11.13;;;2.60;86.20;;;;;;4991711;28;20236;-84
2020/12/07 02:00:51;;;;;;;14.00;11.13;;;2.60;86.20;;;;;;4969351;28;20566;-83
2020/12/07 02:03:19;;;;;;;12.47;10.17;;;2.60;86.10;;;;;;4986341;28;20214;-82
2020/12/07 02:05:46;;;;;;;15.30;11.80;;;2.50;86.00;;;;;;4990038;28;20207;-84
2020/12/07 02:08:16;;;;;;;14.43;10.87;;;2.60;86.20;;;;;;4984880;28;20504;-83
2020/12/07 02:10:45;;;;;;;14.03;10.00;;;2.50;86.00;;;;;;4986701;28;20672;-82
2020/12/07 02:13:13;;;;;;;14.77;10.83;;;2.50;86.20;;;;;;4988177;28;20730;-82
2020/12/07 02:15:42;;;;;;;15.83;11.50;;;2.50;86.20;;;;;;4966967;28;20438;-85
2020/12/07 02:18:11;;;;;;;16.43;10.70;;;2.40;86.10;;;;;;4986256;28;20200;-82
2020/12/07 02:20:39;;;;;;;16.93;11.73;;;2.50;86.10;;;;;;4997996;28;20283;-83
2020/12/07 02:23:07;;;;;;;14.47;10.83;;;2.50;86.10;;;;;;5004502;28;20200;-83
2020/12/07 02:25:35;;;;;;;12.60;9.13;;;2.60;86.10;;;;;;5002609;28;20204;-84
2020/12/07 02:28:03;;;;;;;15.33;11.43;;;2.50;86.20;;;;;;4982229;28;20566;-83
2020/12/07 02:30:36;;;;;;;15.83;11.03;;;2.50;86.10;;;;;;4989295;28;20212;-83
2020/12/07 02:33:04;;;;;;;14.63;9.73;;;2.50;86.20;;;;;;4990738;28;20196;-82
2020/12/07 02:35:32;;;;;;;13.40;10.13;;;2.40;86.20;;;;;;5004274;28;20207;-84
2020/12/07 02:38:02;;;;;;;13.13;10.43;;;2.50;86.30;;;;;;4988261;28;20227;-82
2020/12/07 02:40:31;;;;;;;13.67;11.03;;;2.40;86.30;;;;;;4987604;28;20204;-83
2020/12/07 02:43:00;;;;;;;15.90;11.10;;;2.40;86.20;;;;;;4988778;28;20207;-84
2020/12/07 02:45:27;;;;;;;14.47;10.87;;;2.60;86.40;;;;;;4987393;28;20208;-84
2020/12/07 02:47:55;;;;;;;12.07;8.23;;;2.40;86.30;;;;;;4985403;28;20250;-82
2020/12/07 02:50:23;;;;;;;16.63;10.90;;;2.50;86.30;;;;;;4985409;28;20252;-81
2020/12/07 02:52:50;;;;;;;15.03;10.33;;;2.60;86.30;;;;;;4990293;28;20371;-82
2020/12/07 02:55:19;;;;;;;15.37;11.10;;;2.50;86.50;;;;;;4993801;28;20342;-82
2020/12/07 02:57:47;;;;;;;13.60;10.00;;;2.50;86.40;;;;;;4989141;28;20204;-83
2020/12/07 03:00:14;;;;;;;15.33;11.00;;;2.60;86.30;;;;;;4998173;28;20263;-83
2020/12/07 03:02:44;;;;;;;13.53;10.07;;;2.40;86.10;;;;;;5006576;28;20226;-81
2020/12/07 03:05:13;;;;;;;11.67;9.93;;;2.40;86.10;;;;;;5006163;28;20192;-83
2020/12/07 03:07:40;;;;;;;15.10;10.13;;;2.40;86.00;;;;;;4980651;28;20751;-80
2020/12/07 03:10:08;;;;;;;14.60;10.70;;;2.40;86.10;;;;;;4984734;28;20311;-81
2020/12/07 03:12:37;;;;;;;14.93;10.27;;;2.30;86.20;;;;;;4984416;28;20232;-82
2020/12/07 03:15:04;;;;;;;11.87;9.27;;;2.30;86.00;;;;;;4984000;28;20211;-82
2020/12/07 03:17:32;;;;;;;13.70;10.23;;;2.30;86.10;;;;;;4985224;28;20204;-81
2020/12/07 03:19:59;;;;;;;11.40;9.03;;;2.30;86.10;;;;;;4985560;28;20509;-81
2020/12/07 03:22:27;;;;;;;13.97;11.13;;;2.30;86.10;;;;;;4988559;28;20223;-82
2020/12/07 03:24:57;;;;;;;11.87;9.23;;;2.30;86.20;;;;;;4984929;28;20227;-82
2020/12/07 03:27:26;;;;;;;14.73;10.60;;;2.40;86.30;;;;;;4985638;28;20710;-84
2020/12/07 03:29:54;;;;;;;12.20;9.73;;;2.30;86.20;;;;;;4988429;28;20247;-82
2020/12/07 03:32:22;;;;;;;14.93;11.10;;;2.30;86.30;;;;;;4988857;28;20255;-83
2020/12/07 03:34:51;;;;;;;12.70;10.47;;;2.30;86.30;;;;;;4989832;28;20220;-81
2020/12/07 03:37:18;;;;;;;14.53;9.80;;;2.30;86.20;;;;;;4983563;28;20314;-81
2020/12/07 03:39:47;;;;;;;10.33;8.60;;;2.30;86.20;;;;;;4985578;28;20200;-83
2020/12/07 03:42:15;;;;;;;14.73;9.67;;;2.30;86.10;;;;;;4984199;28;20215;-84
2020/12/07 03:44:42;;;;;;;12.53;9.20;;;2.40;86.20;;;;;;4987459;28;20304;-80
2020/12/07 03:47:11;;;;;;;12.50;8.80;;;2.40;86.30;;;;;;4985009;28;20235;-82
2020/12/07 03:49:39;;;;;;;13.77;9.17;;;2.30;86.10;;;;;;4984362;28;20415;-83
2020/12/07 03:52:06;;;;;;;18.20;7.83;;;2.20;86.20;;;;;;4987368;28;20248;-84
2020/12/07 03:54:33;;;;;;;11.00;8.30;;;2.20;86.10;;;;;;4985984;28;20235;-81
2020/12/07 03:57:01;;;;;;;12.07;9.87;;;2.20;86.10;;;;;;4986468;28;20578;-82
2020/12/07 03:59:28;;;;;;;11.27;9.00;;;2.20;86.20;;;;;;4982067;28;20262;-82
2020/12/07 04:01:57;;;;;;;7.70;6.13;;;2.20;86.40;;;;;;4969025;28;20211;-82
2020/12/07 04:04:32;;;;;;;10.10;8.70;;;2.20;86.20;;;;;;4985169;28;20196;-82
2020/12/07 04:06:59;;;;;;;9.90;8.73;;;2.20;86.10;;;;;;4985471;28;20204;-81
2020/12/07 04:09:27;;;;;;;14.57;8.83;;;2.20;86.20;;;;;;4981546;28;20251;-82
2020/12/07 04:11:56;;;;;;;10.80;7.37;;;2.20;86.10;;;;;;4981957;28;20252;-82
2020/12/07 04:14:26;;;;;;;11.70;8.07;;;2.20;86.00;;;;;;4986849;28;20657;-83
2020/12/07 04:16:55;;;;;;;11.33;8.67;;;2.20;86.20;;;;;;4985092;28;20212;-82
2020/12/07 04:19:25;;;;;;;6.40;4.83;;;2.10;86.20;;;;;;4986872;28;20316;-79
2020/12/07 04:21:53;;;;;;;11.30;8.83;;;2.10;86.00;;;;;;4989354;28;20208;-84
2020/12/07 04:24:20;;;;;;;10.80;8.10;;;2.10;86.10;;;;;;4992160;28;20200;-81
2020/12/07 04:26:49;;;;;;;9.13;7.77;;;2.10;86.10;;;;;;5004235;28;20252;-82
2020/12/07 04:29:17;;;;;;;10.57;8.57;;;2.10;86.20;;;;;;5005493;28;20188;-81
2020/12/07 04:31:44;;;;;;;11.90;9.23;;;2.00;86.20;;;;;;4980035;28;20232;-83
2020/12/07 04:34:15;;;;;;;10.47;8.40;;;2.10;86.20;;;;;;5001211;28;20240;-82
2020/12/07 04:36:43;;;;;;;9.70;7.70;;;2.10;86.30;;;;;;5002411;28;20192;-82
2020/12/07 04:39:11;;;;;;;11.63;9.07;;;2.10;86.20;;;;;;4986089;28;20200;-82
2020/12/07 04:41:41;;;;;;;11.90;8.43;;;2.30;86.20;;;;;;5000939;28;20486;-82
2020/12/07 04:44:10;;;;;;;10.37;8.73;;;2.10;86.30;;;;;;5001091;28;20512;-83
2020/12/07 04:46:39;;;;;;;14.37;9.50;;;2.20;86.30;;;;;;4985680;28;20204;-81
2020/12/07 04:49:06;;;;;;;11.33;8.50;;;2.10;86.20;;;;;;4975719;28;20216;-83
2020/12/07 04:51:37;;;;;;;11.60;9.23;;;2.10;86.00;;;;;;4991751;28;20239;-83
2020/12/07 04:54:07;;;;;;;11.17;8.87;;;2.10;86.20;;;;;;4966340;28;20640;-85
2020/12/07 04:56:36;;;;;;;12.57;8.03;;;2.10;86.20;;;;;;4980300;28;20250;-81
2020/12/07 04:59:04;;;;;;;10.67;8.30;;;2.10;86.10;;;;;;4991522;28;20803;-82
2020/12/07 05:01:33;;;;;;;12.53;8.63;;;2.10;86.20;;;;;;4988432;28;20204;-82
2020/12/07 05:04:00;;;;;;;12.67;9.20;;;2.10;86.20;;;;;;4985940;28;20558;-83
2020/12/07 05:06:29;;;;;;;10.53;7.53;;;2.10;86.10;;;;;;4990473;28;20270;-81
2020/12/07 05:09:00;;;;;;;11.00;8.80;;;2.20;86.00;;;;;;4996622;28;20375;-83
2020/12/07 05:11:29;;;;;;;11.03;8.77;;;2.10;86.00;;;;;;4998006;28;20247;-83
2020/12/07 05:14:02;;;;;;;11.87;9.27;;;2.10;86.30;;;;;;5007779;28;20201;-82
2020/12/07 05:16:30;;;;;;;12.17;9.03;;;2.10;86.20;;;;;;4990129;28;20975;-83
2020/12/07 05:19:00;;;;;;;12.40;9.57;;;2.10;86.10;;;;;;5004315;28;20248;-81
2020/12/07 05:21:28;;;;;;;10.80;8.80;;;2.10;86.20;;;;;;5002205;28;20807;-83
2020/12/07 05:23:56;;;;;;;10.90;7.10;;;2.10;86.30;;;;;;4985819;28;20207;-82
2020/12/07 05:26:24;;;;;;;10.57;9.13;;;2.10;86.00;;;;;;4974339;28;20195;-84
2020/12/07 05:29:02;;;;;;;12.63;7.97;;;2.10;86.00;;;;;;5006925;28;20180;-85
2020/12/07 05:31:34;;;;;;;12.33;8.97;;;2.10;86.00;;;;;;5003817;28;20211;-83
2020/12/07 05:34:01;;;;;;;8.97;6.37;;;2.10;86.00;;;;;;5005139;28;20188;-82
2020/12/07 05:36:29;;;;;;;12.50;9.70;;;2.10;85.90;;;;;;4984445;28;20239;-81
2020/12/07 05:38:57;;;;;;;12.77;8.60;;;2.10;86.10;;;;;;4986751;28;20279;-80
2020/12/07 05:41:26;;;;;;;13.07;9.53;;;2.20;86.00;;;;;;4987718;28;20243;-80
2020/12/07 05:43:54;;;;;;;10.47;8.70;;;2.00;86.00;;;;;;4988169;28;20200;-81
2020/12/07 05:46:26;;;;;;;12.03;9.43;;;2.10;85.90;;;;;;4990845;28;20667;-83
2020/12/07 05:48:57;;;;;;;11.10;8.70;;;2.00;85.90;;;;;;4993880;28;20212;-81
2020/12/07 05:51:26;;;;;;;15.17;9.97;;;2.00;86.00;;;;;;5001128;28;20216;-82
2020/12/07 05:53:55;;;;;;;13.23;9.90;;;2.00;86.00;;;;;;5005687;28;20201;-80
2020/12/07 05:56:22;;;;;;;13.83;9.47;;;2.00;86.00;;;;;;5002321;28;20201;-82
2020/12/07 05:58:59;;;;;;;13.37;9.40;;;2.00;86.00;;;;;;4991326;28;20279;-79
2020/12/07 06:01:28;;;;;;;16.20;10.23;;;2.00;85.90;;;;;;4981704;28;20196;-80
2020/12/07 06:03:56;;;;;;;16.13;10.50;;;2.10;86.10;;;;;;4990836;28;20212;-80
2020/12/07 06:06:31;;;;;;;14.97;10.03;;;2.00;86.00;;;;;;4965797;28;20294;-82
2020/12/07 06:09:02;;;;;;;10.20;9.17;;;2.00;85.90;;;;;;4965159;28;20215;-81
2020/12/07 06:11:34;;;;;;;14.13;10.57;;;2.00;86.00;;;;;;4987385;28;20575;-84
2020/12/07 06:14:04;;;;;;;11.80;9.60;;;2.00;86.00;;;;;;4989385;28;20304;-84
2020/12/07 06:16:37;;;;;;;14.00;10.03;;;2.10;86.00;;;;;;4994816;28;20224;-84
2020/12/07 06:19:14;;;;;;;15.47;10.73;;;2.10;86.10;;;;;;4992690;28;20213;-84
2020/12/07 06:21:48;;;;;;;11.23;9.30;;;2.10;86.00;;;;;;4988265;28;20204;-81
2020/12/07 06:24:16;;;;;;;13.33;10.67;;;2.10;85.90;;;;;;4990021;28;20199;-83
2020/12/07 06:26:44;;;;;;;12.13;9.83;;;2.10;86.00;;;;;;4988840;28;20256;-82
2020/12/07 06:29:14;;;;;;;12.67;9.80;;;2.00;86.00;;;;;;4990742;28;20534;-80
2020/12/07 06:31:46;;;;;;;12.10;9.03;;;2.10;85.90;;;;;;4990069;28;20442;-83
2020/12/07 06:34:16;;;;;;;14.30;10.70;;;2.10;85.90;;;;;;4994737;28;20204;-80
2020/12/07 06:36:44;;;;;;;11.93;9.30;;;2.10;85.90;;;;;;4996009;28;20193;-84
2020/12/07 06:39:12;;;;;;;8.07;6.07;;;2.10;85.90;;;;;;4988013;28;20222;-83
2020/12/07 06:41:42;;;;;;;11.87;9.30;;;2.10;85.90;;;;;;4988182;28;20327;-82
2020/12/07 06:44:12;;;;;;;9.90;7.70;;;2.10;85.80;;;;;;4995240;28;20575;-83
2020/12/07 06:46:59;;;;;;;14.23;9.67;;;2.00;85.70;;;;;;4978146;28;20203;-83
2020/12/07 06:49:35;;;;;;;13.70;9.77;;;2.00;85.90;;;;;;4973965;28;20295;-85
2020/12/07 06:52:10;;;;;;;13.17;9.53;;;2.00;85.80;;;;;;4991273;28;20220;-80
2020/12/07 06:57:31;;;;;;;12.10;8.73;;;2.10;85.80;;;;;;4986736;28;20782;-85
2020/12/07 07:00:02;;;;;;;13.00;9.17;;;2.10;85.70;;;;;;4993747;28;20224;-81
2020/12/07 07:02:30;;;;;;;16.57;10.47;;;2.10;85.60;;;;;;4992643;28;20227;-83
2020/12/07 07:04:59;;;;;;;14.13;9.50;;;2.00;85.50;;;;;;4959892;28;20759;-82
2020/12/07 07:07:29;;;;;;;14.67;8.70;;;2.10;85.50;;;;;;4982214;28;20209;-82
2020/12/07 07:09:58;;;;;;;10.70;8.53;;;2.20;85.40;;;;;;4981878;28;20207;-82
2020/12/07 07:12:26;;;;;;;12.63;9.30;;;2.20;85.30;;;;;;4962919;28;20689;-80
2020/12/07 07:14:56;;;;;;;22.77;9.93;;;2.20;85.30;;;;;;4992392;28;20212;-80
2020/12/07 07:17:28;;;;;;;15.03;9.70;;;2.20;85.40;;;;;;4997685;28;20184;-82
2020/12/07 07:19:59;;;;;;;11.73;9.50;;;2.20;85.40;;;;;;4994179;28;20200;-81
2020/12/07 07:22:27;;;;;;;13.50;9.07;;;2.30;85.30;;;;;;4992265;28;20201;-81
2020/12/07 07:25:04;;;;;;;11.00;8.60;;;2.20;85.20;;;;;;4984826;28;20193;-81
2020/12/07 07:30:37;;;;;;;12.57;9.50;;;2.20;85.10;;;;;;4935482;28;20260;-82
2020/12/07 07:33:04;;;;;;;12.40;8.53;;;2.30;85.10;;;;;;4933794;28;20799;-82
2020/12/07 07:35:37;;;;;;;11.67;9.63;;;2.30;85.10;;;;;;4936108;28;20225;-84
2020/12/07 07:38:04;;;;;;;10.90;8.63;;;2.30;85.00;;;;;;4933238;28;20210;-82
2020/12/07 07:40:33;;;;;;;10.23;7.37;;;2.30;85.00;;;;;;4945985;28;20926;-82
2020/12/07 07:43:02;;;;;;;10.63;8.13;;;2.30;84.70;;;;;;4932846;28;20309;-86
2020/12/07 07:45:32;;;;;;;12.63;8.30;;;2.30;84.70;;;;;;4919677;28;21430;-83
2020/12/07 07:48:06;;;;;;;11.17;7.00;;;2.20;84.70;;;;;;4928975;28;20304;-80
2020/12/07 07:50:51;;;;;;;10.87;7.77;;;2.20;84.60;;;;;;4908610;28;20220;-85
2020/12/07 08:15:54;;;;;;;13.87;7.23;;;2.10;84.30;;;;;;4939637;28;20216;-83
2020/12/07 08:18:31;;;;;;;10.73;6.97;;;2.20;84.20;;;;;;4965327;28;20204;-79
2020/12/07 08:21:01;;;;;;;10.70;7.07;;;2.10;84.30;;;;;;4963913;28;20295;-81
2020/12/07 08:23:31;;;;;;;11.03;7.37;;;2.20;84.30;;;;;;4962513;28;20651;-79
2020/12/07 08:26:00;;;;;;;10.77;7.30;;;2.10;84.00;;;;;;4958311;28;20950;-80
2020/12/07 08:28:30;;;;;;;12.80;8.17;;;2.20;84.00;;;;;;4952500;28;20217;-81
2020/12/07 08:31:01;;;;;;;13.50;8.60;;;2.20;84.20;;;;;;4959012;28;20219;-82
2020/12/07 08:33:29;;;;;;;11.57;8.40;;;2.20;84.10;;;;;;4959795;28;20702;-81
2020/12/07 08:35:59;;;;;;;11.77;6.93;;;2.30;84.10;;;;;;4962591;28;20200;-81
2020/12/07 08:38:31;;;;;;;11.57;8.00;;;2.30;83.80;;;;;;4971809;28;20208;-81
2020/12/07 08:41:13;;;;;;;11.40;7.87;;;2.30;83.80;;;;;;4977847;28;20188;-82
2020/12/07 08:43:43;;;;;;;13.27;8.43;;;2.30;83.80;;;;;;4996902;28;20391;-81
2020/12/07 08:46:13;;;;;;;10.83;7.57;;;2.30;84.00;;;;;;4998925;28;20423;-80
2020/12/07 08:48:41;;;;;;;11.63;7.00;;;2.30;83.90;;;;;;4977009;28;20212;-80
2020/12/07 08:51:09;;;;;;;12.47;7.67;;;2.30;84.00;;;;;;4973256;28;20870;-81
2020/12/07 08:53:39;;;;;;;9.87;7.10;;;2.30;83.90;;;;;;4969745;28;20235;-81
2020/12/07 08:56:09;;;;;;;13.80;8.53;;;2.30;83.80;;;;;;4964965;28;20231;-80
2020/12/07 08:58:36;;;;;;;12.87;7.73;;;2.30;83.80;;;;;;4965225;28;21015;-81
2020/12/07 09:01:06;;;;;;;12.60;8.27;;;2.40;83.90;;;;;;4962824;28;20640;-81
2020/12/07 09:03:35;;;;;;;13.67;8.23;;;2.40;83.70;;;;;;4966008;28;20591;-81
2020/12/07 09:06:03;;;;;;;8.67;5.67;;;2.40;83.60;;;;;;4965475;28;20897;-81
2020/12/07 09:08:31;;;;;;;7.93;6.33;;;2.50;83.50;;;;;;4967382;28;20398;-80
2020/12/07 09:11:02;;;;;;;10.93;7.17;;;2.40;83.60;;;;;;4961570;28;20218;-82
2020/12/07 09:13:30;;;;;;;11.67;6.30;;;2.20;83.60;;;;;;4954152;28;20322;-82
2020/12/07 09:15:58;;;;;;;9.60;6.77;;;2.20;83.60;;;;;;4968308;28;20280;-83
2020/12/07 09:18:27;;;;;;;10.97;7.20;;;2.40;83.50;;;;;;4972526;28;20499;-82
2020/12/07 09:20:56;;;;;;;12.43;7.67;;;2.20;83.30;;;;;;4969662;28;20211;-82
2020/12/07 09:23:27;;;;;;;10.77;6.70;;;2.20;83.40;;;;;;4982065;28;20208;-81
2020/12/07 09:25:56;;;;;;;9.17;7.17;;;2.30;83.60;;;;;;4978502;28;20230;-84
2020/12/07 09:28:35;;;;;;;12.77;7.10;;;2.30;83.20;;;;;;4971012;28;20497;-80
2020/12/07 09:31:04;;;;;;;11.63;6.87;;;2.30;83.20;;;;;;4966141;28;20208;-83
2020/12/07 09:33:32;;;;;;;12.33;6.53;;;2.30;83.10;;;;;;4963049;28;20574;-82
2020/12/07 09:36:00;;;;;;;10.60;7.03;;;2.30;83.00;;;;;;4985694;28;20207;-81
2020/12/07 09:38:28;;;;;;;15.20;7.20;;;2.30;83.00;;;;;;4971093;28;20203;-81
2020/12/07 09:41:01;;;;;;;13.07;7.10;;;2.40;82.90;;;;;;4974379;28;20200;-83
2020/12/07 09:43:30;;;;;;;12.03;7.27;;;2.40;83.00;;;;;;4974203;28;20467;-80
2020/12/07 09:46:02;;;;;;;11.83;7.47;;;2.40;83.00;;;;;;4975014;28;20203;-82
2020/12/07 09:48:32;;;;;;;18.90;7.37;;;2.40;82.90;;;;;;4992236;28;20531;-82
2020/12/07 09:51:00;;;;;;;11.77;6.40;;;2.40;83.00;;;;;;4989990;28;20193;-80
2020/12/07 09:53:28;;;;;;;10.30;6.60;;;2.50;83.10;;;;;;4999720;28;20212;-82
2020/12/07 09:55:56;;;;;;;9.37;7.33;;;2.50;82.80;;;;;;4990003;28;20904;-81
2020/12/07 09:58:24;;;;;;;13.90;8.20;;;2.50;82.80;;;;;;4961049;28;20204;-82
2020/12/07 10:00:53;;;;;;;12.63;7.50;;;2.50;82.80;;;;;;4992950;28;20407;-83
2020/12/07 10:03:21;;;;;;;8.17;6.03;;;2.40;82.70;;;;;;5001482;28;20188;-80
2020/12/07 10:05:49;;;;;;;8.17;6.40;;;2.30;82.90;;;;;;4991143;28;20283;-84
2020/12/07 10:08:16;;;;;;;11.70;7.33;;;2.30;82.90;;;;;;5004347;28;20207;-82
2020/12/07 10:10:47;;;;;;;12.50;7.47;;;2.20;82.80;;;;;;5008237;28;20191;-86
2020/12/07 10:13:27;;;;;;;10.47;7.40;;;2.30;82.90;;;;;;4982510;28;20506;-82
2020/12/07 10:16:01;;;;;;;11.33;7.50;;;2.30;83.00;;;;;;4972255;28;20219;-83
2020/12/07 10:18:29;;;;;;;10.60;6.67;;;2.30;82.80;;;;;;4970729;28;20208;-83
2020/12/07 10:20:58;;;;;;;10.30;6.97;;;2.30;83.00;;;;;;4962281;28;20432;-82
2020/12/07 10:23:26;;;;;;;13.80;8.90;;;2.40;82.70;;;;;;4982915;28;20204;-80
2020/12/07 10:25:54;;;;;;;11.60;7.63;;;2.60;82.90;;;;;;4978867;28;20204;-81
2020/12/07 10:28:27;;;;;;;11.90;8.13;;;2.40;82.70;;;;;;4956677;28;20231;-82
2020/12/07 10:30:56;;;;;;;12.10;7.37;;;2.40;82.70;;;;;;4985115;28;20214;-82
2020/12/07 10:33:25;;;;;;;14.00;6.77;;;2.30;82.60;;;;;;4976377;28;20228;-82
2020/12/07 10:35:53;;;;;;;10.43;6.90;;;2.30;82.70;;;;;;4964697;28;20634;-83
2020/12/07 10:38:21;;;;;;;12.73;8.10;;;2.30;82.70;;;;;;4968340;28;20192;-83
2020/12/07 10:40:51;;;;;;;12.40;7.87;;;2.40;82.80;;;;;;4982190;28;20195;-83
2020/12/07 10:43:19;;;;;;;9.07;7.27;;;2.40;82.60;;;;;;4961442;28;20208;-84
2020/12/07 10:45:46;;;;;;;12.33;7.50;;;2.50;82.50;;;;;;4987256;28;20250;-81
2020/12/07 10:48:15;;;;;;;11.80;7.70;;;2.50;82.40;;;;;;5000921;28;20242;-82
2020/12/07 10:50:43;;;;;;;12.00;7.67;;;2.60;82.40;;;;;;5006672;28;20208;-82
2020/12/07 10:53:10;;;;;;;13.20;7.60;;;2.60;82.30;;;;;;4996459;28;20239;-79
2020/12/07 10:55:40;;;;;;;12.20;7.47;;;2.60;82.30;;;;;;4995492;28;20192;-83
2020/12/07 10:58:08;;;;;;;10.13;6.97;;;2.70;82.30;;;;;;5012734;28;20192;-82
2020/12/07 11:00:56;;;;;;;9.37;5.63;;;2.70;82.00;;;;;;4979783;28;20231;-83
2020/12/07 11:03:28;;;;;;;13.37;7.13;;;2.70;82.10;;;;;;4996735;28;20172;-83
2020/12/07 11:05:58;;;;;;;14.80;7.70;;;2.70;82.30;;;;;;5009372;28;20443;-83
2020/12/07 11:08:33;;;;;;;11.40;6.73;;;2.80;82.30;;;;;;4979658;28;20212;-80
2020/12/07 11:11:00;;;;;;;11.63;6.90;;;2.80;82.00;;;;;;4992776;28;20294;-81
2020/12/07 11:13:30;;;;;;;13.37;7.83;;;2.90;82.10;;;;;;4992696;28;20224;-79
2020/12/07 11:16:01;;;;;;;9.83;7.07;;;2.90;81.90;;;;;;4991133;28;20215;-81
2020/12/07 11:18:30;;;;;;;9.50;7.10;;;2.90;82.10;;;;;;4983624;28;20196;-80
2020/12/07 11:20:58;;;;;;;9.90;7.33;;;3.00;81.70;;;;;;4995828;28;20289;-81
2020/12/07 11:23:25;;;;;;;13.60;7.93;;;2.90;81.80;;;;;;4997913;28;20288;-81
2020/12/07 11:25:53;;;;;;;12.50;7.37;;;3.10;81.80;;;;;;4994748;28;20205;-80
2020/12/07 11:28:20;;;;;;;12.07;7.63;;;3.10;81.80;;;;;;4981519;28;20200;-82
2020/12/07 11:30:49;;;;;;;10.20;6.93;;;3.10;81.80;;;;;;4960188;28;20211;-83
2020/12/07 11:33:16;;;;;;;11.77;7.70;;;3.20;81.50;;;;;;4999496;28;20215;-81
2020/12/07 11:35:45;;;;;;;10.47;6.73;;;3.10;81.50;;;;;;4986429;28;20208;-83
2020/12/07 11:38:17;;;;;;;12.20;7.80;;;3.10;81.50;;;;;;4966034;28;20787;-81
2020/12/07 11:40:57;;;;;;;11.43;7.67;;;3.10;81.70;;;;;;4972086;28;20302;-81
2020/12/07 11:43:37;;;;;;;12.73;7.93;;;3.10;81.70;;;;;;4960335;28;20212;-82
2020/12/07 11:46:05;;;;;;;11.53;7.67;;;3.10;81.80;;;;;;4965186;28;20471;-82
2020/12/07 11:48:33;;;;;;;14.23;7.90;;;3.10;81.60;;;;;;4964041;28;20338;-80
2020/12/07 11:51:03;;;;;;;11.43;7.03;;;3.10;81.70;;;;;;4976196;28;21507;-84
2020/12/07 11:53:30;;;;;;;14.47;7.93;;;3.10;81.50;;;;;;4974496;28;20409;-82
2020/12/07 11:55:58;;;;;;;8.27;7.10;;;3.00;81.70;;;;;;4967985;28;20466;-81
2020/12/07 11:58:25;;;;;;;12.07;6.97;;;3.10;81.90;;;;;;4990044;28;20210;-84
2020/12/07 12:00:53;;;;;;;12.03;7.30;;;3.00;81.80;;;;;;4989249;28;20188;-83
2020/12/07 12:03:28;;;;;;;12.23;8.07;;;3.00;81.70;;;;;;4993103;28;20215;-81
2020/12/07 12:05:56;;;;;;;12.63;7.40;;;2.90;81.60;;;;;;4977544;28;20215;-81
2020/12/07 12:08:25;;;;;;;12.00;8.17;;;2.90;81.70;;;;;;4996287;28;20197;-80
2020/12/07 12:10:53;;;;;;;10.00;6.63;;;2.90;81.80;;;;;;4980003;28;20281;-82
2020/12/07 12:13:22;;;;;;;11.00;7.03;;;2.90;81.80;;;;;;4974416;28;20224;-80
2020/12/07 12:15:51;;;;;;;12.77;8.30;;;2.90;81.90;;;;;;4971174;28;20222;-81
2020/12/07 12:18:19;;;;;;;10.80;7.87;;;2.90;81.90;;;;;;4970055;28;20581;-81
2020/12/07 12:20:48;;;;;;;10.57;7.00;;;2.80;81.90;;;;;;4969910;28;20211;-83
2020/12/07 12:23:16;;;;;;;14.10;7.87;;;2.80;82.00;;;;;;4967635;28;20211;-84
2020/12/07 12:25:44;;;;;;;11.10;6.37;;;2.80;81.90;;;;;;4970979;28;20247;-82
2020/12/07 12:28:12;;;;;;;15.77;8.07;;;2.70;82.00;;;;;;4970631;28;20537;-80
2020/12/07 12:30:41;;;;;;;12.77;8.57;;;2.70;82.00;;;;;;4978915;28;20625;-81
2020/12/07 12:33:08;;;;;;;16.50;8.67;;;2.70;82.00;;;;;;4972005;28;20341;-79
2020/12/07 12:35:36;;;;;;;11.67;7.63;;;2.70;82.10;;;;;;4977732;28;20211;-83
2020/12/07 12:38:03;;;;;;;10.13;6.00;;;2.70;81.80;;;;;;4972076;28;20196;-80
2020/12/07 12:40:31;;;;;;;10.97;7.10;;;2.60;81.70;;;;;;4977798;28;20208;-82
2020/12/07 12:42:59;;;;;;;13.77;7.80;;;2.60;81.80;;;;;;4980522;28;20323;-79
2020/12/07 12:45:27;;;;;;;9.40;7.37;;;2.60;81.90;;;;;;4979298;28;20199;-80
2020/12/07 12:47:54;;;;;;;13.93;7.10;;;2.60;81.90;;;;;;4988706;28;20219;-80
2020/12/07 12:50:24;;;;;;;16.47;8.90;;;2.60;82.00;;;;;;4980628;28;20211;-80
2020/12/07 12:52:52;;;;;;;12.20;7.83;;;2.60;82.10;;;;;;4979905;28;20338;-79
2020/12/07 12:55:19;;;;;;;12.87;9.47;;;2.50;82.00;;;;;;4980383;28;20203;-80
2020/12/07 12:57:47;;;;;;;13.73;7.80;;;2.50;82.20;;;;;;4987518;28;20372;-82
2020/12/07 13:00:15;;;;;;;11.30;7.50;;;2.50;82.00;;;;;;4996828;28;20204;-81
2020/12/07 13:02:45;;;;;;;11.83;7.40;;;2.50;82.00;;;;;;4997891;28;20207;-78
2020/12/07 13:05:13;;;;;;;15.47;9.00;;;2.50;82.00;;;;;;4973314;28;20207;-82
2020/12/07 13:07:42;;;;;;;11.13;7.17;;;2.50;81.90;;;;;;4973548;28;20498;-81
2020/12/07 13:10:10;;;;;;;13.07;8.50;;;2.60;82.00;;;;;;4976321;28;20203;-83
2020/12/07 13:12:38;;;;;;;12.83;8.53;;;2.50;82.00;;;;;;4973256;28;20223;-82
2020/12/07 13:15:05;;;;;;;14.87;8.57;;;2.50;81.90;;;;;;4975241;28;20637;-84
2020/12/07 13:17:38;;;;;;;11.30;7.37;;;2.50;81.90;;;;;;4972268;28;21103;-81
2020/12/07 13:20:09;;;;;;;12.43;8.53;;;2.50;81.90;;;;;;4974549;28;20266;-81
2020/12/07 13:22:42;;;;;;;11.77;8.30;;;2.50;81.90;;;;;;4973940;28;20876;-81
2020/12/07 13:25:13;;;;;;;17.30;8.97;;;2.50;81.70;;;;;;4979968;28;20199;-81